sensor_id;sensor_type;location;lat;lon;timestamp;P1;durP1;ratioP1;P2;durP2;ratioP2
55483;SDS011;41345;51.704;5.146;2022-07-23T00:04:51;7.55;;;4.15;;
55483;SDS011;41345;51.704;5.146;2022-07-23T00:09:52;8.65;;;4.18;;
55483;SDS011;41345;51.704;5.146;2022-07-23T00:14:52;10.20;;;4.80;;
55483;SDS011;41345;51.704;5.146;2022-07-23T00:19:52;6.95;;;3.80;;
55483;SDS011;41345;51.704;5.146;2022-07-23T00:24:53;6.50;;;3.58;;
55483;SDS011;41345;51.704;5.146;2022-07-23T00:29:54;7.80;;;4.22;;
55483;SDS011;41345;51.704;5.146;2022-07-23T00:34:54;9.77;;;4.50;;
55483;SDS011;41345;51.704;5.146;2022-07-23T00:39:54;7.78;;;4.60;;
55483;SDS011;41345;51.704;5.146;2022-07-23T00:44:56;7.63;;;4.00;;
55483;SDS011;41345;51.704;5.146;2022-07-23T00:49:56;10.25;;;4.25;;
55483;SDS011;41345;51.704;5.146;2022-07-23T00:54:56;6.97;;;4.20;;
55483;SDS011;41345;51.704;5.146;2022-07-23T00:59:57;8.48;;;4.10;;
55483;SDS011;41345;51.704;5.146;2022-07-23T01:05:00;9.25;;;4.00;;
55483;SDS011;41345;51.704;5.146;2022-07-23T01:10:01;5.88;;;2.95;;
55483;SDS011;41345;51.704;5.146;2022-07-23T01:15:02;6.78;;;3.35;;
55483;SDS011;41345;51.704;5.146;2022-07-23T01:20:03;6.20;;;3.40;;
55483;SDS011;41345;51.704;5.146;2022-07-23T01:25:04;6.03;;;3.42;;
55483;SDS011;41345;51.704;5.146;2022-07-23T01:30:05;7.15;;;3.50;;
55483;SDS011;41345;51.704;5.146;2022-07-23T01:35:07;8.70;;;4.05;;
55483;SDS011;41345;51.704;5.146;2022-07-23T01:40:09;8.02;;;3.95;;
55483;SDS011;41345;51.704;5.146;2022-07-23T01:45:09;8.48;;;4.70;;
55483;SDS011;41345;51.704;5.146;2022-07-23T01:50:10;8.48;;;4.60;;
55483;SDS011;41345;51.704;5.146;2022-07-23T01:55:11;7.40;;;4.40;;
55483;SDS011;41345;51.704;5.146;2022-07-23T02:00:11;9.35;;;4.95;;
55483;SDS011;41345;51.704;5.146;2022-07-23T02:05:12;11.93;;;5.40;;
55483;SDS011;41345;51.704;5.146;2022-07-23T02:10:12;10.75;;;4.72;;
55483;SDS011;41345;51.704;5.146;2022-07-23T02:15:13;9.75;;;5.72;;
55483;SDS011;41345;51.704;5.146;2022-07-23T02:20:13;9.48;;;5.18;;
55483;SDS011;41345;51.704;5.146;2022-07-23T02:25:14;10.93;;;5.70;;
55483;SDS011;41345;51.704;5.146;2022-07-23T02:30:15;10.18;;;5.40;;
55483;SDS011;41345;51.704;5.146;2022-07-23T02:35:15;8.82;;;4.70;;
55483;SDS011;41345;51.704;5.146;2022-07-23T02:40:16;11.05;;;4.80;;
55483;SDS011;41345;51.704;5.146;2022-07-23T02:45:18;9.95;;;5.70;;
55483;SDS011;41345;51.704;5.146;2022-07-23T02:50:19;8.70;;;4.50;;
55483;SDS011;41345;51.704;5.146;2022-07-23T02:55:19;9.60;;;5.18;;
55483;SDS011;41345;51.704;5.146;2022-07-23T03:00:20;7.20;;;3.22;;
55483;SDS011;41345;51.704;5.146;2022-07-23T03:05:20;8.25;;;5.22;;
55483;SDS011;41345;51.704;5.146;2022-07-23T03:10:21;8.70;;;4.30;;
55483;SDS011;41345;51.704;5.146;2022-07-23T03:15:21;10.20;;;4.88;;
55483;SDS011;41345;51.704;5.146;2022-07-23T03:20:22;10.68;;;5.05;;
55483;SDS011;41345;51.704;5.146;2022-07-23T03:25:22;7.97;;;4.55;;
55483;SDS011;41345;51.704;5.146;2022-07-23T03:30:23;10.50;;;5.22;;
55483;SDS011;41345;51.704;5.146;2022-07-23T03:35:23;9.02;;;5.00;;
55483;SDS011;41345;51.704;5.146;2022-07-23T03:40:24;9.35;;;4.43;;
55483;SDS011;41345;51.704;5.146;2022-07-23T03:45:24;9.80;;;4.88;;
55483;SDS011;41345;51.704;5.146;2022-07-23T03:50:25;9.77;;;5.47;;
55483;SDS011;41345;51.704;5.146;2022-07-23T03:55:25;9.73;;;5.10;;
55483;SDS011;41345;51.704;5.146;2022-07-23T04:00:26;6.47;;;3.03;;
55483;SDS011;41345;51.704;5.146;2022-07-23T04:05:27;5.32;;;2.50;;
55483;SDS011;41345;51.704;5.146;2022-07-23T04:10:27;9.65;;;5.00;;
55483;SDS011;41345;51.704;5.146;2022-07-23T04:15:28;7.80;;;3.40;;
55483;SDS011;41345;51.704;5.146;2022-07-23T04:20:28;6.45;;;3.03;;
55483;SDS011;41345;51.704;5.146;2022-07-23T04:25:29;5.28;;;2.58;;
55483;SDS011;41345;51.704;5.146;2022-07-23T04:30:30;4.50;;;2.65;;
55483;SDS011;41345;51.704;5.146;2022-07-23T04:35:31;4.00;;;1.58;;
55483;SDS011;41345;51.704;5.146;2022-07-23T04:40:31;4.47;;;1.50;;
55483;SDS011;41345;51.704;5.146;2022-07-23T04:45:32;5.60;;;3.38;;
55483;SDS011;41345;51.704;5.146;2022-07-23T04:50:32;6.05;;;3.50;;
55483;SDS011;41345;51.704;5.146;2022-07-23T04:55:33;9.10;;;4.93;;
55483;SDS011;41345;51.704;5.146;2022-07-23T05:00:33;10.38;;;5.50;;
55483;SDS011;41345;51.704;5.146;2022-07-23T05:05:34;14.35;;;8.43;;
55483;SDS011;41345;51.704;5.146;2022-07-23T05:10:35;19.67;;;9.32;;
55483;SDS011;41345;51.704;5.146;2022-07-23T05:15:36;11.35;;;7.47;;
55483;SDS011;41345;51.704;5.146;2022-07-23T05:20:36;13.07;;;7.93;;
55483;SDS011;41345;51.704;5.146;2022-07-23T05:25:37;14.25;;;8.93;;
55483;SDS011;41345;51.704;5.146;2022-07-23T05:30:37;11.90;;;7.57;;
55483;SDS011;41345;51.704;5.146;2022-07-23T05:35:38;10.77;;;7.25;;
55483;SDS011;41345;51.704;5.146;2022-07-23T05:40:38;11.73;;;7.30;;
55483;SDS011;41345;51.704;5.146;2022-07-23T05:45:39;11.98;;;7.20;;
55483;SDS011;41345;51.704;5.146;2022-07-23T05:50:39;11.15;;;6.80;;
55483;SDS011;41345;51.704;5.146;2022-07-23T05:55:40;13.85;;;7.32;;
55483;SDS011;41345;51.704;5.146;2022-07-23T06:00:40;13.88;;;9.35;;
55483;SDS011;41345;51.704;5.146;2022-07-23T06:05:41;12.05;;;7.22;;
55483;SDS011;41345;51.704;5.146;2022-07-23T06:10:41;15.57;;;8.48;;
55483;SDS011;41345;51.704;5.146;2022-07-23T06:15:42;13.63;;;8.95;;
55483;SDS011;41345;51.704;5.146;2022-07-23T06:20:42;12.45;;;7.95;;
55483;SDS011;41345;51.704;5.146;2022-07-23T06:25:43;11.82;;;7.70;;
55483;SDS011;41345;51.704;5.146;2022-07-23T06:30:43;12.10;;;7.18;;
55483;SDS011;41345;51.704;5.146;2022-07-23T06:35:44;13.55;;;7.97;;
55483;SDS011;41345;51.704;5.146;2022-07-23T06:40:44;21.05;;;8.82;;
55483;SDS011;41345;51.704;5.146;2022-07-23T06:45:45;14.65;;;6.70;;
55483;SDS011;41345;51.704;5.146;2022-07-23T06:50:45;15.82;;;7.00;;
55483;SDS011;41345;51.704;5.146;2022-07-23T06:55:46;12.35;;;5.95;;
55483;SDS011;41345;51.704;5.146;2022-07-23T07:00:46;11.10;;;5.95;;
55483;SDS011;41345;51.704;5.146;2022-07-23T07:05:47;12.98;;;7.25;;
55483;SDS011;41345;51.704;5.146;2022-07-23T07:10:47;12.85;;;6.47;;
55483;SDS011;41345;51.704;5.146;2022-07-23T07:15:48;12.00;;;7.00;;
55483;SDS011;41345;51.704;5.146;2022-07-23T07:20:48;14.05;;;7.70;;
55483;SDS011;41345;51.704;5.146;2022-07-23T07:25:49;11.77;;;6.45;;
55483;SDS011;41345;51.704;5.146;2022-07-23T07:30:50;11.05;;;6.70;;
55483;SDS011;41345;51.704;5.146;2022-07-23T07:35:50;13.30;;;7.10;;
55483;SDS011;41345;51.704;5.146;2022-07-23T07:40:51;7.93;;;5.28;;
55483;SDS011;41345;51.704;5.146;2022-07-23T07:45:51;9.13;;;5.40;;
55483;SDS011;41345;51.704;5.146;2022-07-23T07:50:52;8.95;;;4.75;;
55483;SDS011;41345;51.704;5.146;2022-07-23T07:55:52;11.18;;;5.15;;
55483;SDS011;41345;51.704;5.146;2022-07-23T08:00:53;9.20;;;4.03;;
55483;SDS011;41345;51.704;5.146;2022-07-23T08:05:53;7.97;;;4.50;;
55483;SDS011;41345;51.704;5.146;2022-07-23T08:10:54;10.27;;;4.57;;
55483;SDS011;41345;51.704;5.146;2022-07-23T08:15:54;10.65;;;5.75;;
55483;SDS011;41345;51.704;5.146;2022-07-23T08:20:55;9.57;;;5.35;;
55483;SDS011;41345;51.704;5.146;2022-07-23T08:25:55;13.35;;;5.90;;
55483;SDS011;41345;51.704;5.146;2022-07-23T08:30:56;12.45;;;5.82;;
55483;SDS011;41345;51.704;5.146;2022-07-23T08:35:57;9.70;;;4.85;;
55483;SDS011;41345;51.704;5.146;2022-07-23T08:40:58;10.35;;;5.60;;
55483;SDS011;41345;51.704;5.146;2022-07-23T08:45:59;12.32;;;5.45;;
55483;SDS011;41345;51.704;5.146;2022-07-23T08:51:01;8.20;;;5.45;;
55483;SDS011;41345;51.704;5.146;2022-07-23T08:56:03;9.20;;;4.80;;
55483;SDS011;41345;51.704;5.146;2022-07-23T09:01:04;10.73;;;5.55;;
55483;SDS011;41345;51.704;5.146;2022-07-23T09:06:05;8.27;;;4.88;;
55483;SDS011;41345;51.704;5.146;2022-07-23T09:11:10;12.38;;;6.05;;
55483;SDS011;41345;51.704;5.146;2022-07-23T09:21:30;11.00;;;5.50;;
55483;SDS011;41345;51.704;5.146;2022-07-23T09:31:52;9.55;;;5.80;;
55483;SDS011;41345;51.704;5.146;2022-07-23T09:36:58;11.98;;;5.88;;
55483;SDS011;41345;51.704;5.146;2022-07-23T09:47:14;9.38;;;5.45;;
55483;SDS011;41345;51.704;5.146;2022-07-23T09:52:17;8.88;;;4.82;;
55483;SDS011;41345;51.704;5.146;2022-07-23T09:57:27;9.63;;;5.78;;
55483;SDS011;41345;51.704;5.146;2022-07-23T10:02:28;11.23;;;5.22;;
55483;SDS011;41345;51.704;5.146;2022-07-23T10:07:32;9.98;;;4.72;;
55483;SDS011;41345;51.704;5.146;2022-07-23T10:12:36;9.15;;;5.10;;
55483;SDS011;41345;51.704;5.146;2022-07-23T10:17:47;9.02;;;5.90;;
55483;SDS011;41345;51.704;5.146;2022-07-23T10:28:12;10.00;;;5.53;;
55483;SDS011;41345;51.704;5.146;2022-07-23T10:33:30;7.43;;;4.28;;
55483;SDS011;41345;51.704;5.146;2022-07-23T10:44:08;7.97;;;5.10;;
55483;SDS011;41345;51.704;5.146;2022-07-23T10:49:30;8.65;;;4.60;;
55483;SDS011;41345;51.704;5.146;2022-07-23T10:54:31;9.38;;;4.68;;
55483;SDS011;41345;51.704;5.146;2022-07-23T10:59:32;7.57;;;4.05;;
55483;SDS011;41345;51.704;5.146;2022-07-23T11:05:25;5.60;;;3.15;;
55483;SDS011;41345;51.704;5.146;2022-07-23T11:16:03;7.43;;;4.07;;
55483;SDS011;41345;51.704;5.146;2022-07-23T11:21:24;7.82;;;3.67;;
55483;SDS011;41345;51.704;5.146;2022-07-23T11:31:51;7.07;;;3.78;;
55483;SDS011;41345;51.704;5.146;2022-07-23T11:36:55;5.88;;;3.38;;
55483;SDS011;41345;51.704;5.146;2022-07-23T11:41:56;7.05;;;3.33;;
55483;SDS011;41345;51.704;5.146;2022-07-23T11:47:05;5.38;;;3.35;;
55483;SDS011;41345;51.704;5.146;2022-07-23T11:57:11;9.25;;;3.97;;
55483;SDS011;41345;51.704;5.146;2022-07-23T12:02:11;7.20;;;3.20;;
55483;SDS011;41345;51.704;5.146;2022-07-23T12:07:26;4.30;;;2.38;;
55483;SDS011;41345;51.704;5.146;2022-07-23T12:12:39;7.07;;;3.05;;
55483;SDS011;41345;51.704;5.146;2022-07-23T12:17:43;9.80;;;3.85;;
55483;SDS011;41345;51.704;5.146;2022-07-23T12:22:46;7.20;;;3.38;;
55483;SDS011;41345;51.704;5.146;2022-07-23T12:27:57;6.90;;;3.23;;
55483;SDS011;41345;51.704;5.146;2022-07-23T12:33:02;6.53;;;3.13;;
55483;SDS011;41345;51.704;5.146;2022-07-23T12:38:05;9.57;;;3.45;;
55483;SDS011;41345;51.704;5.146;2022-07-23T12:43:09;6.07;;;3.20;;
55483;SDS011;41345;51.704;5.146;2022-07-23T12:48:20;5.72;;;2.88;;
55483;SDS011;41345;51.704;5.146;2022-07-23T12:53:29;5.88;;;2.80;;
55483;SDS011;41345;51.704;5.146;2022-07-23T13:09:02;14.20;;;2.75;;
55483;SDS011;41345;51.704;5.146;2022-07-23T13:14:05;4.32;;;2.35;;
55483;SDS011;41345;51.704;5.146;2022-07-23T13:19:05;6.38;;;3.00;;
55483;SDS011;41345;51.704;5.146;2022-07-23T13:24:10;4.70;;;2.67;;
55483;SDS011;41345;51.704;5.146;2022-07-23T13:29:12;3.60;;;2.22;;
55483;SDS011;41345;51.704;5.146;2022-07-23T13:34:13;5.35;;;2.40;;
55483;SDS011;41345;51.704;5.146;2022-07-23T13:39:13;6.25;;;2.67;;
55483;SDS011;41345;51.704;5.146;2022-07-23T13:44:14;3.42;;;2.00;;
55483;SDS011;41345;51.704;5.146;2022-07-23T13:49:14;10.00;;;3.45;;
55483;SDS011;41345;51.704;5.146;2022-07-23T13:54:15;4.35;;;2.25;;
55483;SDS011;41345;51.704;5.146;2022-07-23T13:59:16;5.05;;;2.63;;
55483;SDS011;41345;51.704;5.146;2022-07-23T14:04:16;6.55;;;2.50;;
55483;SDS011;41345;51.704;5.146;2022-07-23T14:09:16;4.80;;;2.10;;
55483;SDS011;41345;51.704;5.146;2022-07-23T14:14:17;9.63;;;2.58;;
55483;SDS011;41345;51.704;5.146;2022-07-23T14:19:17;4.70;;;2.30;;
55483;SDS011;41345;51.704;5.146;2022-07-23T14:24:18;5.50;;;2.40;;
55483;SDS011;41345;51.704;5.146;2022-07-23T14:29:18;9.52;;;6.22;;
55483;SDS011;41345;51.704;5.146;2022-07-23T14:34:19;4.68;;;2.33;;
55483;SDS011;41345;51.704;5.146;2022-07-23T14:39:20;3.72;;;2.28;;
55483;SDS011;41345;51.704;5.146;2022-07-23T14:44:20;6.20;;;2.53;;
55483;SDS011;41345;51.704;5.146;2022-07-23T14:49:21;6.97;;;2.70;;
55483;SDS011;41345;51.704;5.146;2022-07-23T14:54:21;5.38;;;2.70;;
55483;SDS011;41345;51.704;5.146;2022-07-23T14:59:22;5.53;;;2.50;;
55483;SDS011;41345;51.704;5.146;2022-07-23T15:04:23;7.13;;;2.72;;
55483;SDS011;41345;51.704;5.146;2022-07-23T15:09:24;4.10;;;2.13;;
55483;SDS011;41345;51.704;5.146;2022-07-23T15:14:25;4.57;;;2.30;;
55483;SDS011;41345;51.704;5.146;2022-07-23T15:19:25;3.80;;;2.20;;
55483;SDS011;41345;51.704;5.146;2022-07-23T15:24:26;5.32;;;2.80;;
55483;SDS011;41345;51.704;5.146;2022-07-23T15:29:27;6.60;;;3.47;;
55483;SDS011;41345;51.704;5.146;2022-07-23T15:34:27;5.93;;;2.90;;
55483;SDS011;41345;51.704;5.146;2022-07-23T15:39:28;5.45;;;3.08;;
55483;SDS011;41345;51.704;5.146;2022-07-23T15:44:28;3.67;;;2.00;;
55483;SDS011;41345;51.704;5.146;2022-07-23T15:49:29;4.72;;;2.67;;
55483;SDS011;41345;51.704;5.146;2022-07-23T15:54:33;3.97;;;2.45;;
55483;SDS011;41345;51.704;5.146;2022-07-23T15:59:33;6.40;;;3.00;;
55483;SDS011;41345;51.704;5.146;2022-07-23T16:04:33;9.70;;;3.00;;
55483;SDS011;41345;51.704;5.146;2022-07-23T16:09:34;7.45;;;2.75;;
55483;SDS011;41345;51.704;5.146;2022-07-23T16:14:35;5.10;;;2.83;;
55483;SDS011;41345;51.704;5.146;2022-07-23T16:19:36;6.00;;;2.83;;
55483;SDS011;41345;51.704;5.146;2022-07-23T16:24:36;6.53;;;2.60;;
55483;SDS011;41345;51.704;5.146;2022-07-23T16:29:37;6.07;;;2.80;;
55483;SDS011;41345;51.704;5.146;2022-07-23T16:34:37;3.97;;;2.17;;
55483;SDS011;41345;51.704;5.146;2022-07-23T16:39:38;7.32;;;2.72;;
55483;SDS011;41345;51.704;5.146;2022-07-23T16:44:38;5.55;;;2.28;;
55483;SDS011;41345;51.704;5.146;2022-07-23T16:49:39;5.50;;;2.63;;
55483;SDS011;41345;51.704;5.146;2022-07-23T16:54:39;3.80;;;2.27;;
55483;SDS011;41345;51.704;5.146;2022-07-23T16:59:40;9.45;;;2.88;;
55483;SDS011;41345;51.704;5.146;2022-07-23T17:04:41;6.45;;;2.72;;
55483;SDS011;41345;51.704;5.146;2022-07-23T17:09:41;6.60;;;2.78;;
55483;SDS011;41345;51.704;5.146;2022-07-23T17:14:42;5.80;;;2.72;;
55483;SDS011;41345;51.704;5.146;2022-07-23T17:19:42;4.50;;;2.35;;
55483;SDS011;41345;51.704;5.146;2022-07-23T17:24:43;3.97;;;2.40;;
55483;SDS011;41345;51.704;5.146;2022-07-23T17:29:43;4.75;;;2.50;;
55483;SDS011;41345;51.704;5.146;2022-07-23T17:34:44;5.82;;;2.50;;
55483;SDS011;41345;51.704;5.146;2022-07-23T17:39:45;6.25;;;2.90;;
55483;SDS011;41345;51.704;5.146;2022-07-23T17:44:46;6.00;;;2.75;;
55483;SDS011;41345;51.704;5.146;2022-07-23T17:49:46;6.50;;;3.13;;
55483;SDS011;41345;51.704;5.146;2022-07-23T17:54:47;5.95;;;3.03;;
55483;SDS011;41345;51.704;5.146;2022-07-23T17:59:47;5.03;;;2.85;;
55483;SDS011;41345;51.704;5.146;2022-07-23T18:04:47;6.00;;;2.47;;
55483;SDS011;41345;51.704;5.146;2022-07-23T18:09:48;5.07;;;2.72;;
55483;SDS011;41345;51.704;5.146;2022-07-23T18:14:49;3.63;;;2.22;;
55483;SDS011;41345;51.704;5.146;2022-07-23T18:19:49;4.63;;;2.75;;
55483;SDS011;41345;51.704;5.146;2022-07-23T18:24:50;5.43;;;2.70;;
55483;SDS011;41345;51.704;5.146;2022-07-23T18:29:51;4.57;;;2.75;;
55483;SDS011;41345;51.704;5.146;2022-07-23T18:34:51;4.87;;;2.57;;
55483;SDS011;41345;51.704;5.146;2022-07-23T18:39:52;5.22;;;2.80;;
55483;SDS011;41345;51.704;5.146;2022-07-23T18:44:53;4.65;;;2.75;;
55483;SDS011;41345;51.704;5.146;2022-07-23T18:49:53;5.70;;;3.08;;
55483;SDS011;41345;51.704;5.146;2022-07-23T18:54:54;8.10;;;3.05;;
55483;SDS011;41345;51.704;5.146;2022-07-23T18:59:54;6.68;;;2.80;;
55483;SDS011;41345;51.704;5.146;2022-07-23T19:04:55;8.57;;;3.38;;
55483;SDS011;41345;51.704;5.146;2022-07-23T19:09:55;5.18;;;2.63;;
55483;SDS011;41345;51.704;5.146;2022-07-23T19:14:56;6.32;;;3.00;;
55483;SDS011;41345;51.704;5.146;2022-07-23T19:19:57;5.30;;;2.95;;
55483;SDS011;41345;51.704;5.146;2022-07-23T19:24:57;6.72;;;3.92;;
55483;SDS011;41345;51.704;5.146;2022-07-23T19:29:58;5.30;;;3.30;;
55483;SDS011;41345;51.704;5.146;2022-07-23T19:34:58;14.75;;;5.15;;
55483;SDS011;41345;51.704;5.146;2022-07-23T19:40:03;7.18;;;4.32;;
55483;SDS011;41345;51.704;5.146;2022-07-23T19:45:07;5.85;;;3.50;;
55483;SDS011;41345;51.704;5.146;2022-07-23T19:50:08;9.00;;;4.45;;
55483;SDS011;41345;51.704;5.146;2022-07-23T19:55:10;8.07;;;4.80;;
55483;SDS011;41345;51.704;5.146;2022-07-23T20:00:11;6.75;;;4.15;;
55483;SDS011;41345;51.704;5.146;2022-07-23T20:05:13;12.95;;;5.53;;
55483;SDS011;41345;51.704;5.146;2022-07-23T20:10:13;10.25;;;5.25;;
55483;SDS011;41345;51.704;5.146;2022-07-23T20:15:14;7.43;;;4.22;;
55483;SDS011;41345;51.704;5.146;2022-07-23T20:20:15;8.93;;;5.10;;
55483;SDS011;41345;51.704;5.146;2022-07-23T20:25:15;7.70;;;4.85;;
55483;SDS011;41345;51.704;5.146;2022-07-23T20:30:16;9.10;;;5.80;;
55483;SDS011;41345;51.704;5.146;2022-07-23T20:35:16;6.90;;;4.60;;
55483;SDS011;41345;51.704;5.146;2022-07-23T20:40:17;8.07;;;5.75;;
55483;SDS011;41345;51.704;5.146;2022-07-23T20:45:18;8.98;;;5.35;;
55483;SDS011;41345;51.704;5.146;2022-07-23T20:50:18;6.40;;;4.00;;
55483;SDS011;41345;51.704;5.146;2022-07-23T20:55:19;8.02;;;5.55;;
55483;SDS011;41345;51.704;5.146;2022-07-23T21:00:20;10.95;;;6.70;;
55483;SDS011;41345;51.704;5.146;2022-07-23T21:05:21;8.27;;;5.28;;
55483;SDS011;41345;51.704;5.146;2022-07-23T21:10:21;7.97;;;5.63;;
55483;SDS011;41345;51.704;5.146;2022-07-23T21:15:22;8.10;;;5.22;;
55483;SDS011;41345;51.704;5.146;2022-07-23T21:20:22;8.88;;;5.93;;
55483;SDS011;41345;51.704;5.146;2022-07-23T21:25:23;8.20;;;5.85;;
55483;SDS011;41345;51.704;5.146;2022-07-23T21:30:23;8.10;;;5.88;;
55483;SDS011;41345;51.704;5.146;2022-07-23T21:35:24;7.63;;;5.05;;
55483;SDS011;41345;51.704;5.146;2022-07-23T21:40:24;7.10;;;4.70;;
55483;SDS011;41345;51.704;5.146;2022-07-23T21:45:26;9.55;;;7.03;;
55483;SDS011;41345;51.704;5.146;2022-07-23T21:50:26;9.25;;;6.43;;
55483;SDS011;41345;51.704;5.146;2022-07-23T21:55:27;8.95;;;5.70;;
55483;SDS011;41345;51.704;5.146;2022-07-23T22:00:29;8.18;;;5.18;;
55483;SDS011;41345;51.704;5.146;2022-07-23T22:05:33;8.32;;;5.53;;
55483;SDS011;41345;51.704;5.146;2022-07-23T22:10:34;9.10;;;5.88;;
55483;SDS011;41345;51.704;5.146;2022-07-23T22:15:35;9.23;;;6.05;;
55483;SDS011;41345;51.704;5.146;2022-07-23T22:20:35;8.65;;;4.95;;
55483;SDS011;41345;51.704;5.146;2022-07-23T22:25:35;9.63;;;6.30;;
55483;SDS011;41345;51.704;5.146;2022-07-23T22:30:37;8.90;;;5.18;;
55483;SDS011;41345;51.704;5.146;2022-07-23T22:35:37;9.98;;;7.15;;
55483;SDS011;41345;51.704;5.146;2022-07-23T22:40:38;9.70;;;5.95;;
55483;SDS011;41345;51.704;5.146;2022-07-23T22:45:38;10.55;;;6.55;;
55483;SDS011;41345;51.704;5.146;2022-07-23T22:50:39;10.63;;;6.65;;
55483;SDS011;41345;51.704;5.146;2022-07-23T22:55:40;9.60;;;6.55;;
55483;SDS011;41345;51.704;5.146;2022-07-23T23:00:40;9.38;;;5.90;;
55483;SDS011;41345;51.704;5.146;2022-07-23T23:05:41;11.32;;;5.38;;
55483;SDS011;41345;51.704;5.146;2022-07-23T23:10:41;9.50;;;6.55;;
55483;SDS011;41345;51.704;5.146;2022-07-23T23:15:42;10.38;;;7.25;;
55483;SDS011;41345;51.704;5.146;2022-07-23T23:20:42;9.43;;;6.85;;
55483;SDS011;41345;51.704;5.146;2022-07-23T23:25:43;11.85;;;8.27;;
55483;SDS011;41345;51.704;5.146;2022-07-23T23:30:43;9.43;;;7.03;;
55483;SDS011;41345;51.704;5.146;2022-07-23T23:35:45;11.15;;;6.32;;
55483;SDS011;41345;51.704;5.146;2022-07-23T23:40:46;10.55;;;5.90;;
55483;SDS011;41345;51.704;5.146;2022-07-23T23:45:46;11.25;;;7.32;;
55483;SDS011;41345;51.704;5.146;2022-07-23T23:50:47;13.65;;;8.23;;
55483;SDS011;41345;51.704;5.146;2022-07-23T23:55:47;11.50;;;7.28;;
